Time;durP1;ratioP1;P1;durP2;ratioP2;P2;SDS_P1;SDS_P2;PMS_P1;PMS_P2;Temp;Humidity;BMP_temperature;BMP_pressure;BME280_temperature;BME280_humidity;BME280_pressure;Samples;Min_cycle;Max_cycle;Signal;HPM_P1;HPM_P2
2023/04/13 07:55:36;;;;;;;1.33;1.20;;;;;;;;;;6212090;22;20035;-82
2023/04/13 09:14:37;;;;;;;1.67;1.45;;;;;;;;;;6320221;22;20038;-82
2023/04/13 09:17:02;;;;;;;1.23;1.00;;;;;;;;;;6309047;22;20011;-83
2023/04/13 09:19:30;;;;;;;0.90;0.90;;;;;;;;;;6308230;22;20298;-83
2023/04/13 09:21:56;;;;;;;0.85;0.85;;;;;;;;;;6308985;22;20075;-82
2023/04/13 09:24:22;;;;;;;0.90;0.90;;;;;;;;;;6309220;22;20002;-82
2023/04/13 09:26:48;;;;;;;0.70;0.70;;;;;;;;;;6309022;22;20007;-83
2023/04/13 09:29:18;;;;;;;0.60;0.50;;;;;;;;;;6309011;22;20092;-82
2023/04/13 09:31:45;;;;;;;0.60;0.60;;;;;;;;;;6309013;22;20007;-82
2023/04/13 09:34:11;;;;;;;0.70;0.70;;;;;;;;;;6308927;22;20013;-83
2023/04/13 09:36:37;;;;;;;0.70;0.70;;;;;;;;;;6309104;22;20380;-83
2023/04/13 09:39:04;;;;;;;0.70;0.70;;;;;;;;;;6308888;22;20011;-82
2023/04/13 09:41:33;;;;;;;0.80;0.80;;;;;;;;;;6308563;22;19999;-82
2023/04/13 09:44:23;;;;;;;0.75;0.75;;;;;;;;;;6308805;22;20078;-82
2023/04/13 09:47:02;;;;;;;1.45;1.35;;;;;;;;;;6308913;22;20007;-83
2023/04/13 09:54:28;;;;;;;0.70;0.70;;;;;;;;;;6248610;22;20011;-84
2023/04/13 09:56:55;;;;;;;0.70;0.70;;;;;;;;;;6278144;22;20023;-83
2023/04/13 09:59:24;;;;;;;1.10;0.70;;;;;;;;;;6277598;22;20004;-80
2023/04/13 10:01:50;;;;;;;0.70;0.70;;;;;;;;;;6277490;22;20007;-84
2023/04/13 10:04:16;;;;;;;0.70;0.70;;;;;;;;;;6277569;22;20000;-83
2023/04/13 10:06:42;;;;;;;0.65;0.65;;;;;;;;;;6276142;22;20476;-83
2023/04/13 10:09:08;;;;;;;0.70;0.70;;;;;;;;;;6277844;22;20007;-83
2023/04/13 10:11:40;;;;;;;0.82;0.80;;;;;;;;;;6277640;22;20023;-81
2023/04/13 10:14:14;;;;;;;2.53;0.90;;;;;;;;;;6277590;22;20378;-80
2023/04/13 10:16:55;;;;;;;0.68;0.68;;;;;;;;;;6277809;22;20362;-81
2023/04/13 10:19:23;;;;;;;1.00;1.00;;;;;;;;;;6277455;22;20028;-81
2023/04/13 10:21:51;;;;;;;1.45;1.35;;;;;;;;;;6277319;22;20061;-83
2023/04/13 10:24:19;;;;;;;1.55;1.00;;;;;;;;;;6277411;22;19999;-82
2023/04/13 10:26:44;;;;;;;0.70;0.70;;;;;;;;;;6277363;22;20003;-82
2023/04/13 10:29:12;;;;;;;0.70;0.70;;;;;;;;;;6277462;22;20038;-83
2023/04/13 10:31:40;;;;;;;0.80;0.77;;;;;;;;;;6277521;22;20034;-82
2023/04/13 10:34:06;;;;;;;0.85;0.85;;;;;;;;;;6275558;22;20082;-83
2023/04/13 10:36:41;;;;;;;1.20;1.15;;;;;;;;;;6275786;22;20050;-83
2023/04/13 10:39:07;;;;;;;0.90;0.90;;;;;;;;;;6275606;22;20008;-81
2023/04/13 10:41:32;;;;;;;0.82;0.82;;;;;;;;;;6275698;22;20077;-82
2023/04/13 10:44:05;;;;;;;1.15;0.90;;;;;;;;;;6277792;22;20000;-82
2023/04/13 10:46:35;;;;;;;1.35;1.25;;;;;;;;;;6277287;22;19999;-80
2023/04/13 10:49:01;;;;;;;0.80;0.80;;;;;;;;;;6277199;22;20083;-82
2023/04/13 10:51:44;;;;;;;0.98;0.88;;;;;;;;;;6277215;22;20008;-82
2023/04/13 10:54:12;;;;;;;0.80;0.80;;;;;;;;;;6277010;22;20043;-81
2023/04/13 10:56:39;;;;;;;0.90;0.90;;;;;;;;;;6277274;22;19999;-81
2023/04/13 10:59:04;;;;;;;0.80;0.80;;;;;;;;;;6276931;22;20061;-85
2023/04/13 11:01:30;;;;;;;2.53;1.80;;;;;;;;;;6277771;22;19999;-88
2023/04/13 11:04:01;;;;;;;1.38;1.27;;;;;;;;;;6278355;22;20071;-86
2023/04/13 11:06:27;;;;;;;1.30;1.20;;;;;;;;;;6277046;22;20007;-83
2023/04/13 11:09:05;;;;;;;1.20;1.10;;;;;;;;;;6277296;22;20465;-84
2023/04/13 11:11:35;;;;;;;0.90;0.90;;;;;;;;;;6277362;22;20041;-83
2023/04/13 11:14:00;;;;;;;;;;;;;;;;;;6276170;22;20419;-84
2023/04/13 11:16:25;;;;;;;0.93;0.93;;;;;;;;;;6276944;22;19914;-84
2023/04/13 11:19:01;;;;;;;1.85;0.90;;;;;;;;;;6277036;22;20004;-83
2023/04/13 11:21:27;;;;;;;0.95;0.95;;;;;;;;;;6276842;22;20012;-83
2023/04/13 11:23:53;;;;;;;1.27;1.20;;;;;;;;;;6277234;22;20374;-83
2023/04/13 11:26:30;;;;;;;0.95;0.95;;;;;;;;;;6277207;22;20008;-84
2023/04/13 11:28:56;;;;;;;1.00;1.00;;;;;;;;;;6277025;22;20049;-84
2023/04/13 11:31:33;;;;;;;1.10;1.00;;;;;;;;;;6277123;22;20041;-84
2023/04/13 11:33:58;;;;;;;2.90;1.10;;;;;;;;;;6276914;22;20057;-84
2023/04/13 11:36:25;;;;;;;1.17;1.08;;;;;;;;;;6276865;22;20003;-83
2023/04/13 11:38:53;;;;;;;1.23;1.10;;;;;;;;;;6276876;22;20430;-84
2023/04/13 11:41:18;;;;;;;1.20;1.20;;;;;;;;;;6277201;22;20000;-82
2023/04/13 11:43:47;;;;;;;1.30;1.20;;;;;;;;;;6279139;22;20003;-83
2023/04/13 16:26:14;;;;;;;1.65;1.55;;;;;;;;;;6303204;22;20011;-83
2023/04/13 16:44:21;;;;;;;2.20;1.80;;;;;;;;;;5070831;28;20434;-83
2023/04/13 16:46:46;;;;;;;7.85;4.45;;;;;;;;;;5070679;28;20429;-83
2023/04/13 16:49:12;;;;;;;3.42;2.60;;;;;;;;;;5070789;28;20108;-83
2023/04/13 16:51:37;;;;;;;2.75;2.42;;;;;;;;;;5070628;28;20125;-83
2023/04/13 16:54:03;;;;;;;1.60;1.50;;;;;;;;;;5069165;28;20391;-82
2023/04/13 16:56:28;;;;;;;1.85;1.45;;;;;;;;;;5070309;28;20021;-82
2023/04/13 16:58:55;;;;;;;0.90;0.90;;;;;;;;;;5070538;28;20052;-82
2023/04/13 17:01:20;;;;;;;1.15;1.05;;;;;;;;;;5070378;28;20379;-82
2023/04/13 17:03:46;;;;;;;1.02;1.02;;;;;;;;;;5070401;28;20029;-82
2023/04/13 17:06:11;;;;;;;0.90;0.90;;;;;;;;;;5069170;28;20040;-84
2023/04/13 17:08:37;;;;;;;0.98;0.98;;;;;;;;;;5070232;28;20130;-84
2023/04/13 17:11:05;;;;;;;2.20;2.00;;;;;;;;;;5069138;28;20029;-84
2023/04/13 17:13:31;;;;;;;2.28;2.08;;;;;;;;;;5069810;28;20032;-84
2023/04/13 17:15:57;;;;;;;1.55;1.45;;;;;;;;;;5070357;28;20564;-83
2023/04/13 17:18:22;;;;;;;2.00;1.42;;;;;;;;;;5070132;28;20042;-82
2023/04/13 17:20:55;;;;;;;1.20;1.20;;;;;;;;;;5070021;28;20056;-84
2023/04/13 17:23:22;;;;;;;2.65;1.60;;;;;;;;;;5069973;28;20430;-86
2023/04/13 17:25:56;;;;;;;1.60;1.50;;;;;;;;;;5069702;28;20031;-87
2023/04/13 17:28:22;;;;;;;5.22;3.58;;;;;;;;;;5069807;28;20116;-85
2023/04/13 17:30:48;;;;;;;3.03;2.60;;;;;;;;;;5068336;28;20116;-84
2023/04/13 17:33:15;;;;;;;4.78;3.60;;;;;;;;;;5069611;28;20126;-82
2023/04/13 17:35:40;;;;;;;2.42;2.20;;;;;;;;;;5069750;28;20024;-83
2023/04/13 17:38:05;;;;;;;1.77;1.67;;;;;;;;;;5069636;28;20082;-84
2023/04/13 17:40:31;;;;;;;1.80;1.70;;;;;;;;;;5069374;28;20029;-84
2023/04/13 17:42:56;;;;;;;1.73;1.48;;;;;;;;;;5069311;28;20051;-83
2023/04/13 17:45:22;;;;;;;1.60;1.50;;;;;;;;;;5055689;28;20040;-83
2023/04/13 17:47:47;;;;;;;1.70;1.60;;;;;;;;;;5056533;28;20025;-81
2023/04/13 17:50:13;;;;;;;1.30;1.20;;;;;;;;;;5056253;28;20082;-84
2023/04/13 17:52:40;;;;;;;1.88;1.30;;;;;;;;;;5056034;28;20060;-82
2023/04/13 17:55:06;;;;;;;1.58;1.48;;;;;;;;;;5056197;28;20029;-82
2023/04/13 17:57:31;;;;;;;1.23;1.13;;;;;;;;;;5056177;28;20036;-82
2023/04/13 17:59:57;;;;;;;1.40;1.30;;;;;;;;;;5056167;28;20029;-82
2023/04/13 18:02:22;;;;;;;1.65;1.20;;;;;;;;;;5056117;28;20057;-84
2023/04/13 18:04:48;;;;;;;1.20;1.15;;;;;;;;;;5056021;28;20447;-84
2023/04/13 18:07:13;;;;;;;1.80;1.70;;;;;;;;;;5056095;28;20032;-82
2023/04/13 18:09:39;;;;;;;1.40;1.40;;;;;;;;;;5055978;28;20112;-84
2023/04/13 18:12:05;;;;;;;1.63;1.42;;;;;;;;;;5055729;28;20032;-79
2023/04/13 18:14:30;;;;;;;1.67;1.50;;;;;;;;;;5055665;28;20376;-79
2023/04/13 18:16:55;;;;;;;1.42;1.33;;;;;;;;;;5055714;28;20031;-83
2023/04/13 18:19:21;;;;;;;1.58;1.48;;;;;;;;;;5054544;28;20025;-82
2023/04/13 18:21:46;;;;;;;1.25;1.25;;;;;;;;;;5055534;28;20039;-82
2023/04/13 18:24:12;;;;;;;1.35;1.27;;;;;;;;;;5055440;28;20029;-85
2023/04/13 18:26:38;;;;;;;1.40;1.30;;;;;;;;;;5055573;28;20052;-87
2023/04/13 18:29:03;;;;;;;1.30;1.20;;;;;;;;;;5055751;28;20028;-87
2023/04/13 18:31:29;;;;;;;1.40;1.30;;;;;;;;;;5055495;28;20119;-85
2023/04/13 18:33:54;;;;;;;1.67;1.58;;;;;;;;;;5054061;28;20079;-82
2023/04/13 18:36:19;;;;;;;1.20;1.20;;;;;;;;;;5055601;28;20063;-83
2023/04/13 18:38:45;;;;;;;1.20;1.10;;;;;;;;;;5055287;28;20113;-83
2023/04/13 18:41:11;;;;;;;1.40;1.30;;;;;;;;;;5055516;28;20025;-83
2023/04/13 18:43:37;;;;;;;1.50;1.40;;;;;;;;;;5055118;28;20132;-83
2023/04/13 18:46:02;;;;;;;1.60;1.50;;;;;;;;;;5055401;28;20499;-83
2023/04/13 18:48:29;;;;;;;1.52;1.42;;;;;;;;;;5055499;28;20029;-84
2023/04/13 18:50:54;;;;;;;1.30;1.20;;;;;;;;;;5055154;28;20025;-84
2023/04/13 18:53:20;;;;;;;1.20;1.10;;;;;;;;;;5054962;28;20032;-83
2023/04/13 18:55:52;;;;;;;1.30;1.15;;;;;;;;;;5052938;28;20029;-84
2023/04/13 18:58:20;;;;;;;0.95;0.95;;;;;;;;;;5054906;28;20028;-85
2023/04/13 19:00:46;;;;;;;1.30;1.20;;;;;;;;;;5054909;28;20104;-83
2023/04/13 19:03:12;;;;;;;1.10;1.10;;;;;;;;;;5053469;28;20025;-83
2023/04/13 19:05:38;;;;;;;1.27;1.13;;;;;;;;;;5054715;28;20029;-83
2023/04/13 19:08:06;;;;;;;1.20;1.10;;;;;;;;;;5054906;28;20090;-84
2023/04/13 19:10:31;;;;;;;1.80;1.20;;;;;;;;;;5054629;28;20108;-84
2023/04/13 19:12:57;;;;;;;0.90;0.90;;;;;;;;;;5054742;28;20507;-82
2023/04/13 19:15:23;;;;;;;1.10;1.10;;;;;;;;;;5054678;28;20029;-81
2023/04/13 19:17:52;;;;;;;1.95;1.42;;;;;;;;;;5054581;28;20072;-81
2023/04/13 19:20:19;;;;;;;1.50;1.40;;;;;;;;;;5054508;28;20025;-80
2023/04/13 19:22:45;;;;;;;1.33;1.30;;;;;;;;;;5054499;28;20033;-82
2023/04/13 19:25:14;;;;;;;1.48;1.40;;;;;;;;;;5054664;28;20082;-87
2023/04/13 19:27:40;;;;;;;1.48;1.38;;;;;;;;;;5045805;28;20510;-88
2023/04/13 19:30:08;;;;;;;1.50;1.40;;;;;;;;;;5045035;28;20027;-87
2023/04/13 19:32:35;;;;;;;1.63;1.52;;;;;;;;;;5037023;28;20029;-86
2023/04/13 19:35:00;;;;;;;2.90;2.70;;;;;;;;;;5033059;28;20116;-86
2023/04/13 19:37:26;;;;;;;1.83;1.60;;;;;;;;;;5033105;28;20119;-88
2023/04/13 19:39:51;;;;;;;1.40;1.30;;;;;;;;;;5034468;28;20021;-88
2023/04/13 19:42:17;;;;;;;1.08;1.08;;;;;;;;;;5034231;28;20045;-87
2023/04/13 19:44:42;;;;;;;1.70;1.60;;;;;;;;;;5034380;28;20052;-87
2023/04/13 19:47:08;;;;;;;2.15;2.05;;;;;;;;;;5032824;28;20362;-88
2023/04/13 19:49:33;;;;;;;1.17;1.15;;;;;;;;;;5032769;28;20155;-88
2023/04/13 19:51:58;;;;;;;1.10;1.00;;;;;;;;;;5032767;28;20032;-88
2023/04/13 19:54:24;;;;;;;1.70;1.20;;;;;;;;;;5045472;28;20021;-86
2023/04/13 19:56:49;;;;;;;1.40;1.30;;;;;;;;;;5052446;28;20039;-87
2023/04/13 19:59:15;;;;;;;1.08;1.05;;;;;;;;;;5053645;28;20027;-87
2023/04/13 20:01:44;;;;;;;1.48;1.38;;;;;;;;;;5044336;28;20462;-87
2023/04/13 20:04:10;;;;;;;1.13;1.10;;;;;;;;;;5044637;28;20087;-87
2023/04/13 20:06:36;;;;;;;1.30;1.20;;;;;;;;;;5041788;28;20547;-87
2023/04/13 20:09:12;;;;;;;1.83;1.15;;;;;;;;;;5049564;28;20029;-87
2023/04/13 20:11:39;;;;;;;1.50;1.40;;;;;;;;;;5052578;28;20087;-87
2023/04/13 20:14:05;;;;;;;1.30;1.20;;;;;;;;;;5051903;28;20470;-87
2023/04/13 20:16:31;;;;;;;1.35;1.15;;;;;;;;;;5053458;28;20055;-87
2023/04/13 20:18:56;;;;;;;1.30;1.20;;;;;;;;;;5052114;28;20082;-87
2023/04/13 20:21:22;;;;;;;0.95;0.95;;;;;;;;;;5053334;28;20090;-87
2023/04/13 20:23:47;;;;;;;1.10;1.10;;;;;;;;;;5041609;28;20040;-87
2023/04/13 20:26:12;;;;;;;1.55;1.17;;;;;;;;;;5032808;28;20133;-88
2023/04/13 20:28:38;;;;;;;1.30;1.20;;;;;;;;;;5048626;28;20029;-87
2023/04/13 20:31:03;;;;;;;1.20;1.15;;;;;;;;;;5052162;28;20029;-87
2023/04/13 20:33:29;;;;;;;3.55;1.20;;;;;;;;;;5050840;28;20033;-87
2023/04/13 20:35:54;;;;;;;1.10;1.10;;;;;;;;;;5049338;28;20107;-87
2023/04/13 20:38:20;;;;;;;1.25;0.90;;;;;;;;;;5052618;28;20074;-87
2023/04/13 20:40:47;;;;;;;1.10;1.10;;;;;;;;;;5053775;28;20132;-87
2023/04/13 20:43:14;;;;;;;1.20;1.10;;;;;;;;;;5051892;28;20045;-87
2023/04/13 20:45:43;;;;;;;0.95;0.95;;;;;;;;;;5053587;28;20064;-88
2023/04/13 20:48:09;;;;;;;1.15;1.10;;;;;;;;;;5052079;28;20029;-87
2023/04/13 20:50:35;;;;;;;2.88;1.20;;;;;;;;;;5051894;28;20087;-87
2023/04/13 20:53:00;;;;;;;1.02;1.02;;;;;;;;;;5053392;28;20039;-88
2023/04/13 20:55:26;;;;;;;1.20;1.10;;;;;;;;;;5052018;28;20032;-87
2023/04/13 20:57:51;;;;;;;0.90;0.90;;;;;;;;;;5051922;28;20052;-87
2023/04/13 21:00:21;;;;;;;1.02;1.00;;;;;;;;;;5052073;28;20054;-87
2023/04/13 21:02:47;;;;;;;1.25;1.20;;;;;;;;;;5052997;28;20108;-87
2023/04/13 21:05:12;;;;;;;1.13;1.10;;;;;;;;;;5051878;28;20480;-87
2023/04/13 21:07:39;;;;;;;1.30;1.20;;;;;;;;;;5053093;28;20029;-88
2023/04/13 21:10:06;;;;;;;1.40;1.30;;;;;;;;;;5051933;28;20028;-89
2023/04/13 21:12:31;;;;;;;1.17;1.13;;;;;;;;;;5052860;28;20511;-89
2023/04/13 21:14:57;;;;;;;1.00;1.00;;;;;;;;;;5052072;28;20120;-89
2023/04/13 21:17:22;;;;;;;0.80;0.80;;;;;;;;;;5051597;28;20025;-89
2023/04/13 21:19:47;;;;;;;1.38;1.10;;;;;;;;;;5054102;28;20021;-89
2023/04/13 21:22:14;;;;;;;1.23;1.13;;;;;;;;;;5055738;28;20383;-91
2023/04/13 21:24:40;;;;;;;1.10;1.10;;;;;;;;;;5056857;28;20021;-90
2023/04/13 21:27:05;;;;;;;1.92;1.10;;;;;;;;;;5056816;28;20031;-90
2023/04/13 21:29:31;;;;;;;0.90;0.90;;;;;;;;;;5055356;28;20108;-90
2023/04/13 21:31:57;;;;;;;1.38;1.15;;;;;;;;;;5055470;28;20115;-88
2023/04/13 21:34:25;;;;;;;0.90;0.90;;;;;;;;;;5055239;28;20115;-90
2023/04/13 21:36:51;;;;;;;1.13;0.90;;;;;;;;;;5055458;28;20056;-90
2023/04/13 21:39:16;;;;;;;1.23;1.15;;;;;;;;;;5056537;28;20036;-90
2023/04/13 21:41:42;;;;;;;0.88;0.88;;;;;;;;;;5055202;28;20118;-89
2023/04/13 21:44:08;;;;;;;1.40;1.30;;;;;;;;;;5056357;28;20127;-89
2023/04/13 21:46:34;;;;;;;1.10;1.10;;;;;;;;;;5053027;28;20059;-88
